createdAt,value
2023-03-12T00:01:17.350Z,0.80
2023-03-12T00:03:44.679Z,0.80
2023-03-12T00:06:11.844Z,0.80
2023-03-12T00:08:39.736Z,0.70
2023-03-12T00:11:08.867Z,0.70
2023-03-12T00:13:35.846Z,0.70
2023-03-12T00:16:14.206Z,0.70
2023-03-12T00:18:41.696Z,0.60
2023-03-12T00:21:09.288Z,0.60
2023-03-12T00:23:36.932Z,0.50
2023-03-12T00:26:09.579Z,0.50
2023-03-12T00:28:36.794Z,0.50
2023-03-12T00:31:12.766Z,0.40
2023-03-12T00:33:39.640Z,0.40
2023-03-12T00:36:07.040Z,0.40
2023-03-12T00:38:33.860Z,0.40
2023-03-12T00:41:00.671Z,0.40
2023-03-12T00:43:27.493Z,0.50
2023-03-12T00:45:54.279Z,0.40
2023-03-12T00:48:21.151Z,0.40
2023-03-12T00:50:47.939Z,0.40
2023-03-12T00:53:15.815Z,0.40
2023-03-12T00:55:42.644Z,0.40
2023-03-12T00:58:09.543Z,0.40
2023-03-12T01:00:36.434Z,0.40
2023-03-12T01:03:03.426Z,0.30
2023-03-12T01:05:30.399Z,0.40
2023-03-12T01:07:57.231Z,0.40
2023-03-12T01:10:24.096Z,0.40
2023-03-12T01:12:50.882Z,0.40
2023-03-12T01:15:18.285Z,0.40
2023-03-12T01:17:45.180Z,0.40
2023-03-12T01:20:12.446Z,0.40
2023-03-12T01:22:39.598Z,0.40
2023-03-12T01:25:06.966Z,0.30
2023-03-12T01:27:33.911Z,0.20
2023-03-12T01:30:00.691Z,0.20
2023-03-12T01:32:27.637Z,0.30
2023-03-12T01:34:55.388Z,0.40
2023-03-12T01:37:22.171Z,0.30
2023-03-12T01:39:48.951Z,0.30
2023-03-12T01:42:15.816Z,0.30
2023-03-12T01:45:03.912Z,0.30
2023-03-12T01:47:33.645Z,0.30
2023-03-12T01:50:01.297Z,0.20
2023-03-12T01:52:32.512Z,0.20
2023-03-12T01:55:14.129Z,0.20
2023-03-12T01:57:48.503Z,0.10
2023-03-12T02:00:20.131Z,0.10
2023-03-12T02:02:49.516Z,0.10
2023-03-12T02:05:40.946Z,0.00
2023-03-12T02:08:07.929Z,0.00
2023-03-12T02:10:34.761Z,0.00
2023-03-12T02:13:01.743Z,0.00
2023-03-12T02:15:28.906Z,-0.10
2023-03-12T02:17:55.877Z,-0.20
2023-03-12T02:20:31.991Z,-0.20
2023-03-12T02:23:25.350Z,-0.30
2023-03-12T02:25:54.257Z,-0.30
2023-03-12T02:28:25.406Z,-0.40
2023-03-12T02:30:55.995Z,-0.30
2023-03-12T02:33:22.804Z,-0.30
2023-03-12T02:35:49.731Z,-0.40
2023-03-12T02:38:34.578Z,-0.40
2023-03-12T02:41:15.379Z,-0.40
2023-03-12T02:43:49.888Z,-0.40
2023-03-12T02:46:17.261Z,-0.50
2023-03-12T02:48:44.309Z,-0.50
2023-03-12T02:51:11.151Z,-0.40
2023-03-12T02:53:38.247Z,-0.40
2023-03-12T02:56:05.519Z,-0.40
2023-03-12T02:58:32.489Z,-0.50
2023-03-12T03:01:00.612Z,-0.50
2023-03-12T03:03:27.519Z,-0.50
2023-03-12T03:05:54.372Z,-0.60
2023-03-12T03:08:21.227Z,-0.50
2023-03-12T03:10:50.266Z,-0.60
2023-03-12T03:13:17.118Z,-0.60
2023-03-12T03:15:43.938Z,-0.60
2023-03-12T03:18:10.799Z,-0.60
2023-03-12T03:20:37.613Z,-0.60
2023-03-12T03:23:04.627Z,-0.60
2023-03-12T03:25:32.858Z,-0.70
2023-03-12T03:27:59.716Z,-0.60
2023-03-12T03:30:26.564Z,-0.60
2023-03-12T03:32:53.420Z,-0.60
2023-03-12T03:35:22.101Z,-0.60
2023-03-12T03:37:49.016Z,-0.60
2023-03-12T03:40:15.924Z,-0.60
2023-03-12T03:42:42.767Z,-0.60
2023-03-12T03:45:10.127Z,-0.60
2023-03-12T03:47:37.003Z,-0.60
2023-03-12T03:50:05.270Z,-0.60
2023-03-12T03:52:32.992Z,-0.60
2023-03-12T03:54:59.970Z,-0.60
2023-03-12T03:57:27.295Z,-0.60
2023-03-12T03:59:54.370Z,-0.50
2023-03-12T04:02:21.834Z,-0.40
2023-03-12T04:04:48.948Z,-0.40
2023-03-12T04:07:16.373Z,-0.40
2023-03-12T04:09:43.801Z,-0.40
2023-03-12T04:12:10.809Z,-0.40
2023-03-12T04:14:40.927Z,-0.40
2023-03-12T04:17:08.464Z,-0.40
2023-03-12T04:19:35.522Z,-0.40
2023-03-12T04:22:02.484Z,-0.40
2023-03-12T04:24:29.413Z,-0.40
2023-03-12T04:26:57.576Z,-0.50
2023-03-12T04:29:24.587Z,-0.50
2023-03-12T04:31:51.531Z,-0.60
2023-03-12T04:34:18.448Z,-0.60
2023-03-12T04:36:46.858Z,-0.70
2023-03-12T04:39:16.413Z,-0.70
2023-03-12T04:41:43.235Z,-0.80
2023-03-12T04:44:12.690Z,-0.80
2023-03-12T04:46:39.914Z,-0.70
2023-03-12T04:49:06.817Z,-0.70
2023-03-12T04:51:33.691Z,-0.80
2023-03-12T04:54:00.473Z,-0.80
2023-03-12T04:56:27.321Z,-0.60
2023-03-12T04:58:54.169Z,-0.60
2023-03-12T05:01:29.966Z,-0.60
2023-03-12T05:03:56.884Z,-0.70
2023-03-12T05:06:24.880Z,-0.80
2023-03-12T05:08:51.963Z,-0.80
2023-03-12T05:11:19.312Z,-0.90
2023-03-12T05:13:46.850Z,-0.80
2023-03-12T05:16:14.812Z,-0.80
2023-03-12T05:18:42.673Z,-0.70
2023-03-12T05:21:15.001Z,-0.80
2023-03-12T05:23:43.129Z,-0.70
2023-03-12T05:26:22.940Z,-0.70
2023-03-12T05:28:50.315Z,-0.60
2023-03-12T05:31:17.910Z,-0.60
2023-03-12T05:33:45.141Z,-0.60
2023-03-12T05:36:13.450Z,-0.50
2023-03-12T05:38:40.692Z,-0.50
2023-03-12T05:41:07.581Z,-0.40
2023-03-12T05:43:34.580Z,-0.40
2023-03-12T05:46:05.501Z,-0.40
2023-03-12T05:48:32.422Z,-0.40
2023-03-12T05:50:59.226Z,-0.40
2023-03-12T05:53:26.631Z,-0.40
2023-03-12T05:55:53.503Z,-0.40
2023-03-12T05:58:20.621Z,-0.30
2023-03-12T06:00:47.459Z,-0.20
2023-03-12T06:03:14.378Z,-0.20
2023-03-12T06:05:41.317Z,-0.20
2023-03-12T06:08:08.151Z,-0.20
2023-03-12T06:10:37.179Z,-0.10
2023-03-12T06:13:04.111Z,-0.10
2023-03-12T06:15:31.178Z,0.00
2023-03-12T06:17:58.018Z,0.00
2023-03-12T06:20:25.054Z,-0.10
2023-03-12T06:22:51.874Z,0.00
2023-03-12T06:25:18.796Z,0.00
2023-03-12T06:27:45.637Z,0.10
2023-03-12T06:30:13.102Z,0.10
2023-03-12T06:32:43.858Z,0.20
2023-03-12T06:35:10.823Z,0.20
2023-03-12T06:37:37.675Z,0.30
2023-03-12T06:40:05.139Z,0.30
2023-03-12T06:42:32.338Z,0.40
2023-03-12T06:44:59.181Z,0.40
2023-03-12T06:47:26.024Z,0.50
2023-03-12T06:49:52.845Z,0.50
2023-03-12T06:52:19.715Z,0.60
2023-03-12T06:54:46.504Z,0.60
2023-03-12T06:57:13.292Z,0.70
2023-03-12T06:59:40.115Z,0.70
2023-03-12T07:02:06.922Z,0.80
2023-03-12T07:04:33.742Z,1.00
2023-03-12T07:07:00.659Z,1.00
2023-03-12T07:09:27.495Z,1.00
2023-03-12T07:11:54.293Z,1.20
2023-03-12T07:14:21.435Z,1.30
2023-03-12T07:16:48.731Z,1.30
2023-03-12T07:19:15.597Z,1.30
2023-03-12T07:21:42.499Z,1.40
2023-03-12T07:24:09.940Z,1.40
2023-03-12T07:26:36.824Z,1.40
2023-03-12T07:29:05.183Z,1.50
2023-03-12T07:31:32.262Z,1.50
2023-03-12T07:33:59.250Z,1.50
2023-03-12T07:36:26.444Z,1.50
2023-03-12T07:38:53.349Z,1.50
2023-03-12T07:41:20.215Z,1.60
2023-03-12T07:43:47.345Z,1.60
2023-03-12T07:46:14.499Z,1.60
2023-03-12T07:48:44.140Z,1.60
2023-03-12T07:51:11.550Z,1.70
2023-03-12T07:53:38.355Z,1.70
2023-03-12T07:56:05.587Z,1.60
2023-03-12T07:58:33.858Z,1.70
2023-03-12T08:01:00.814Z,1.80
2023-03-12T08:03:27.917Z,1.80
2023-03-12T08:06:00.181Z,1.80
2023-03-12T08:08:28.035Z,1.80
2023-03-12T08:10:55.703Z,1.90
2023-03-12T08:13:23.949Z,2.00
2023-03-12T08:15:52.913Z,2.00
2023-03-12T08:18:20.412Z,2.00
2023-03-12T08:20:50.796Z,2.00
2023-03-12T08:23:17.918Z,2.00
2023-03-12T08:25:49.228Z,2.10
2023-03-12T08:28:16.956Z,2.10
2023-03-12T08:30:52.352Z,2.10
2023-03-12T08:33:19.600Z,2.10
2023-03-12T08:35:47.137Z,2.00
2023-03-12T08:38:14.107Z,2.10
2023-03-12T08:40:41.312Z,2.10
2023-03-12T08:43:08.898Z,2.20
2023-03-12T08:45:39.063Z,2.20
2023-03-12T08:48:07.164Z,2.30
2023-03-12T08:50:33.996Z,2.40
2023-03-12T08:53:01.373Z,2.40
2023-03-12T08:55:28.315Z,2.40
2023-03-12T08:57:56.282Z,2.60
2023-03-12T09:00:23.381Z,2.50
2023-03-12T09:02:52.133Z,2.50
2023-03-12T09:05:19.442Z,2.50
2023-03-12T09:07:46.358Z,2.60
2023-03-12T09:10:13.192Z,2.60
2023-03-12T09:12:40.066Z,2.70
2023-03-12T09:15:08.082Z,2.70
2023-03-12T09:17:35.223Z,2.80
2023-03-12T09:20:02.288Z,2.90
2023-03-12T09:22:30.580Z,3.20
2023-03-12T09:24:57.410Z,2.90
2023-03-12T09:27:24.479Z,3.00
2023-03-12T09:30:02.965Z,3.10
2023-03-12T09:32:32.055Z,3.20
2023-03-12T09:34:59.264Z,3.10
2023-03-12T09:37:26.181Z,3.00
2023-03-12T09:39:53.830Z,3.10
2023-03-12T09:42:42.275Z,3.10
2023-03-12T09:45:16.844Z,3.20
2023-03-12T09:47:50.345Z,3.30
2023-03-12T09:50:23.025Z,3.40
2023-03-12T09:52:55.728Z,3.50
2023-03-12T09:55:24.047Z,3.60
2023-03-12T09:57:52.768Z,3.80
2023-03-12T10:00:26.293Z,3.90
2023-03-12T10:03:17.301Z,3.90
2023-03-12T10:06:05.469Z,4.00
2023-03-12T10:09:09.039Z,3.90
2023-03-12T10:11:49.501Z,4.00
2023-03-12T10:14:42.594Z,4.20
2023-03-12T10:17:39.996Z,4.30
2023-03-12T10:20:34.985Z,4.50
2023-03-12T10:23:04.800Z,4.60
2023-03-12T10:25:49.908Z,4.80
2023-03-12T10:28:35.814Z,4.70
2023-03-12T10:31:06.861Z,4.80
2023-03-12T10:33:47.651Z,4.80
2023-03-12T10:36:36.473Z,4.80
2023-03-12T10:39:05.035Z,4.90
2023-03-12T10:41:34.785Z,5.00
2023-03-12T10:44:07.700Z,4.90
2023-03-12T10:46:37.332Z,5.10
2023-03-12T10:49:22.416Z,5.10
2023-03-12T10:51:58.086Z,5.20
2023-03-12T10:54:40.565Z,5.20
2023-03-12T10:57:08.714Z,5.10
2023-03-12T10:59:45.166Z,5.10
2023-03-12T11:02:32.041Z,5.10
2023-03-12T11:05:00.801Z,5.20
2023-03-12T11:07:35.557Z,5.20
2023-03-12T11:10:08.045Z,5.20
2023-03-12T11:12:37.351Z,5.30
2023-03-12T11:15:24.593Z,5.40
2023-03-12T11:17:52.143Z,5.20
2023-03-12T11:20:21.954Z,5.30
2023-03-12T11:22:51.219Z,5.30
2023-03-12T11:25:25.493Z,5.40
2023-03-12T11:28:03.214Z,5.30
2023-03-12T11:30:36.525Z,5.30
2023-03-12T11:33:04.141Z,5.20
2023-03-12T11:36:11.640Z,5.30
2023-03-12T11:38:48.340Z,5.30
2023-03-12T11:41:18.272Z,5.30
2023-03-12T11:44:11.854Z,5.20
2023-03-12T11:47:12.806Z,5.30
2023-03-12T11:49:49.853Z,5.20
2023-03-12T11:52:51.388Z,5.20
2023-03-12T11:55:43.821Z,5.20
2023-03-12T11:58:35.964Z,5.30
2023-03-12T12:01:25.896Z,5.30
2023-03-12T12:04:41.582Z,5.40
2023-03-12T12:07:33.856Z,5.50
2023-03-12T12:10:08.989Z,5.50
2023-03-12T12:12:53.251Z,5.60
2023-03-12T12:15:39.077Z,5.60
2023-03-12T12:18:30.948Z,5.70
2023-03-12T12:21:42.121Z,5.80
2023-03-12T12:24:36.358Z,5.90
2023-03-12T12:27:12.393Z,5.90
2023-03-12T12:29:51.457Z,6.00
2023-03-12T12:32:42.478Z,6.00
2023-03-12T12:35:36.728Z,6.10
2023-03-12T12:38:07.768Z,6.10
2023-03-12T12:40:55.470Z,6.00
2023-03-12T12:43:36.988Z,5.90
2023-03-12T12:46:15.282Z,5.80
2023-03-12T12:48:48.640Z,5.80
2023-03-12T12:51:18.942Z,5.80
2023-03-12T12:54:16.409Z,5.70
2023-03-12T12:56:48.918Z,5.70
2023-03-12T12:59:54.217Z,5.60
2023-03-12T13:02:28.910Z,5.60
2023-03-12T13:05:02.645Z,5.60
2023-03-12T13:07:34.111Z,5.60
2023-03-12T13:10:06.464Z,5.40
2023-03-12T13:12:43.509Z,5.30
2023-03-12T13:15:31.327Z,5.40
2023-03-12T13:18:08.987Z,5.30
2023-03-12T13:21:00.093Z,5.30
2023-03-12T13:23:48.464Z,5.30
2023-03-12T13:26:31.198Z,5.30
2023-03-12T13:29:13.001Z,5.30
2023-03-12T13:31:41.679Z,5.30
2023-03-12T13:34:41.594Z,5.30
2023-03-12T13:37:20.431Z,5.40
2023-03-12T13:39:47.291Z,5.50
2023-03-12T13:42:23.193Z,5.40
2023-03-12T13:44:50.779Z,5.50
2023-03-12T13:47:27.703Z,5.50
2023-03-12T13:50:15.174Z,5.40
2023-03-12T13:52:56.040Z,5.40
2023-03-12T13:55:30.269Z,5.40
2023-03-12T13:58:16.973Z,5.40
2023-03-12T14:01:15.222Z,5.40
2023-03-12T14:03:49.576Z,5.40
2023-03-12T14:06:25.865Z,5.50
2023-03-12T14:09:01.647Z,5.50
2023-03-12T14:12:02.619Z,5.30
2023-03-12T14:15:01.744Z,5.20
2023-03-12T14:17:31.017Z,5.10
2023-03-12T14:20:02.455Z,5.10
2023-03-12T14:22:33.650Z,5.10
2023-03-12T14:25:17.724Z,5.10
2023-03-12T14:27:48.463Z,5.20
2023-03-12T14:30:23.267Z,5.30
2023-03-12T14:32:55.755Z,5.20
2023-03-12T14:35:29.531Z,5.20
2023-03-12T14:38:05.252Z,5.00
2023-03-12T14:40:53.518Z,4.90
2023-03-12T14:43:24.940Z,4.90
2023-03-12T14:45:55.741Z,4.90
2023-03-12T14:48:27.223Z,4.90
2023-03-12T14:50:56.109Z,5.10
2023-03-12T14:53:31.769Z,5.00
2023-03-12T14:56:13.684Z,4.90
2023-03-12T14:58:46.574Z,4.90
2023-03-12T15:01:18.018Z,4.80
2023-03-12T15:03:49.007Z,4.70
2023-03-12T15:06:40.381Z,4.60
2023-03-12T15:09:14.092Z,4.60
2023-03-12T15:11:41.165Z,4.40
2023-03-12T15:14:14.433Z,4.40
2023-03-12T15:16:43.224Z,4.10
2023-03-12T15:19:16.607Z,4.20
2023-03-12T15:21:44.868Z,4.00
2023-03-12T15:24:13.404Z,4.00
2023-03-12T15:26:41.404Z,3.90
2023-03-12T15:29:14.329Z,3.80
2023-03-12T15:31:50.912Z,3.90
2023-03-12T15:34:28.244Z,3.90
2023-03-12T15:36:55.301Z,3.80
2023-03-12T15:39:34.545Z,3.80
2023-03-12T15:42:08.741Z,3.80
2023-03-12T15:44:52.292Z,3.80
2023-03-12T15:47:25.275Z,3.80
2023-03-12T15:49:55.868Z,3.70
2023-03-12T15:52:22.742Z,3.70
2023-03-12T15:55:07.134Z,3.60
2023-03-12T15:57:35.070Z,3.60
2023-03-12T16:00:09.434Z,3.40
2023-03-12T16:02:53.011Z,3.50
2023-03-12T16:05:22.328Z,3.50
2023-03-12T16:07:49.455Z,3.40
2023-03-12T16:10:19.301Z,3.40
2023-03-12T16:12:47.062Z,3.40
2023-03-12T16:15:16.874Z,3.30
2023-03-12T16:17:44.280Z,3.20
2023-03-12T16:20:15.072Z,3.20
2023-03-12T16:22:42.022Z,3.10
2023-03-12T16:25:11.712Z,3.10
2023-03-12T16:27:52.568Z,3.10
2023-03-12T16:30:25.495Z,3.10
2023-03-12T16:32:52.412Z,3.00
2023-03-12T16:35:20.824Z,3.00
2023-03-12T16:37:47.713Z,3.00
2023-03-12T16:40:27.531Z,2.90
2023-03-12T16:43:03.478Z,2.80
2023-03-12T16:45:33.706Z,2.80
2023-03-12T16:48:04.260Z,2.80
2023-03-12T16:50:31.176Z,2.80
2023-03-12T16:52:58.327Z,2.80
2023-03-12T16:55:30.441Z,2.80
2023-03-12T16:58:01.765Z,2.80
2023-03-12T17:00:30.954Z,2.80
2023-03-12T17:02:58.938Z,2.80
2023-03-12T17:05:28.372Z,2.80
2023-03-12T17:07:55.904Z,2.80
2023-03-12T17:10:24.209Z,2.80
2023-03-12T17:12:51.661Z,2.80
2023-03-12T17:15:25.921Z,2.80
2023-03-12T17:17:55.586Z,2.80
2023-03-12T17:20:24.540Z,2.80
2023-03-12T17:22:51.431Z,2.70
2023-03-12T17:25:26.385Z,2.80
2023-03-12T17:27:53.926Z,2.80
2023-03-12T17:30:22.045Z,2.80
2023-03-12T17:32:50.378Z,2.80
2023-03-12T17:35:18.892Z,2.80
2023-03-12T17:37:48.409Z,2.80
2023-03-12T17:40:15.843Z,2.80
2023-03-12T17:42:42.839Z,2.80
2023-03-12T17:45:10.329Z,2.90
2023-03-12T17:47:37.577Z,2.90
2023-03-12T17:50:05.531Z,2.90
2023-03-12T17:52:33.156Z,2.90
2023-03-12T17:55:00.534Z,2.80
2023-03-12T17:57:27.778Z,2.90
2023-03-12T17:59:54.620Z,2.90
2023-03-12T18:02:21.832Z,2.90
2023-03-12T18:04:48.976Z,2.90
2023-03-12T18:07:15.887Z,2.90
2023-03-12T18:09:42.776Z,2.90
2023-03-12T18:12:11.196Z,3.00
2023-03-12T18:14:38.544Z,3.00
2023-03-12T18:17:05.668Z,3.00
2023-03-12T18:19:35.087Z,3.00
2023-03-12T18:22:02.209Z,3.10
2023-03-12T18:24:29.088Z,3.10
2023-03-12T18:26:55.966Z,3.10
2023-03-12T18:29:31.101Z,3.10
2023-03-12T18:31:58.308Z,3.10
2023-03-12T18:34:25.191Z,3.10
2023-03-12T18:36:52.006Z,3.20
2023-03-12T18:39:18.874Z,3.20
2023-03-12T18:41:45.718Z,3.20
2023-03-12T18:44:13.469Z,3.20
2023-03-12T18:46:40.900Z,3.20
2023-03-12T18:49:09.755Z,3.20
2023-03-12T18:51:36.569Z,3.30
2023-03-12T18:54:03.690Z,3.30
2023-03-12T18:56:30.624Z,3.30
2023-03-12T18:58:57.498Z,3.30
2023-03-12T19:01:24.430Z,3.40
2023-03-12T19:03:51.365Z,3.40
2023-03-12T19:06:18.254Z,3.40
2023-03-12T19:08:45.238Z,3.50
2023-03-12T19:11:16.661Z,3.60
2023-03-12T19:13:43.593Z,3.60
2023-03-12T19:16:12.246Z,3.60
2023-03-12T19:18:39.687Z,3.60
2023-03-12T19:21:09.722Z,3.60
2023-03-12T19:23:36.919Z,3.70
2023-03-12T19:26:04.952Z,3.70
2023-03-12T19:28:32.436Z,3.80
2023-03-12T19:31:04.201Z,3.90
2023-03-12T19:33:31.956Z,3.80
2023-03-12T19:35:59.133Z,3.90
2023-03-12T19:38:27.302Z,3.90
2023-03-12T19:40:56.277Z,4.00
2023-03-12T19:43:24.254Z,4.10
2023-03-12T19:45:52.090Z,4.10
2023-03-12T19:48:18.976Z,4.20
2023-03-12T19:50:45.854Z,4.20
2023-03-12T19:53:13.347Z,4.20
2023-03-12T19:55:40.221Z,4.30
2023-03-12T19:58:08.311Z,4.20
2023-03-12T20:00:35.150Z,4.30
2023-03-12T20:03:02.160Z,4.40
2023-03-12T20:05:29.022Z,4.40
2023-03-12T20:07:55.834Z,4.50
2023-03-12T20:10:23.979Z,4.50
2023-03-12T20:12:50.766Z,4.50
2023-03-12T20:15:18.308Z,4.50
2023-03-12T20:17:45.101Z,4.60
2023-03-12T20:20:12.413Z,4.80
2023-03-12T20:22:39.195Z,4.80
2023-03-12T20:25:06.696Z,4.90
2023-03-12T20:27:34.316Z,4.90
2023-03-12T20:30:01.233Z,5.00
2023-03-12T20:32:28.755Z,5.00
2023-03-12T20:34:55.750Z,5.10
2023-03-12T20:37:22.707Z,5.20
2023-03-12T20:39:49.518Z,5.20
2023-03-12T20:42:16.353Z,5.20
2023-03-12T20:44:43.177Z,5.30
2023-03-12T20:47:10.016Z,5.40
2023-03-12T20:49:36.984Z,5.40
2023-03-12T20:52:03.860Z,5.40
2023-03-12T20:54:30.683Z,5.50
2023-03-12T20:56:58.434Z,5.60
2023-03-12T20:59:25.227Z,5.40
2023-03-12T21:01:52.102Z,5.50
2023-03-12T21:04:18.954Z,5.60
2023-03-12T21:06:47.587Z,5.60
2023-03-12T21:09:15.093Z,5.70
2023-03-12T21:11:41.956Z,5.70
2023-03-12T21:14:08.801Z,5.80
2023-03-12T21:16:36.545Z,5.80
2023-03-12T21:19:03.392Z,5.90
2023-03-12T21:21:31.091Z,5.90
2023-03-12T21:23:57.857Z,5.90
2023-03-12T21:26:24.648Z,6.00
2023-03-12T21:28:51.509Z,6.10
2023-03-12T21:31:18.946Z,6.10
2023-03-12T21:33:45.895Z,6.20
2023-03-12T21:36:14.057Z,6.20
2023-03-12T21:38:42.947Z,6.20
2023-03-12T21:41:16.049Z,6.30
2023-03-12T21:43:44.203Z,6.30
2023-03-12T21:46:17.026Z,6.30
2023-03-12T21:48:45.968Z,6.40
2023-03-12T21:51:15.275Z,6.50
2023-03-12T21:53:42.557Z,6.50
2023-03-12T21:56:10.423Z,6.50
2023-03-12T21:58:37.410Z,6.50
2023-03-12T22:01:04.287Z,6.60
2023-03-12T22:03:31.300Z,6.50
2023-03-12T22:05:58.187Z,6.60
2023-03-12T22:08:25.378Z,6.60
2023-03-12T22:10:52.381Z,6.60
2023-03-12T22:13:19.157Z,6.60
2023-03-12T22:15:58.453Z,6.70
2023-03-12T22:18:25.707Z,6.70
2023-03-12T22:20:58.382Z,6.70
2023-03-12T22:23:25.507Z,6.80
2023-03-12T22:25:52.302Z,6.80
2023-03-12T22:28:19.620Z,6.90
2023-03-12T22:30:46.712Z,7.00
2023-03-12T22:33:13.749Z,7.10
2023-03-12T22:35:44.987Z,7.00
2023-03-12T22:38:12.110Z,7.00
2023-03-12T22:40:39.194Z,7.10
2023-03-12T22:43:06.020Z,7.00
2023-03-12T22:45:33.326Z,7.30
2023-03-12T22:48:00.663Z,7.00
2023-03-12T22:50:27.552Z,7.00
2023-03-12T22:52:54.337Z,7.00
2023-03-12T22:55:21.112Z,7.00
2023-03-12T22:57:47.878Z,7.10
2023-03-12T23:00:17.418Z,7.00
2023-03-12T23:02:44.266Z,7.10
2023-03-12T23:05:11.377Z,7.10
2023-03-12T23:07:38.237Z,7.10
2023-03-12T23:10:05.817Z,7.20
2023-03-12T23:12:33.007Z,7.20
2023-03-12T23:14:59.917Z,7.20
2023-03-12T23:17:26.668Z,7.10
2023-03-12T23:19:53.446Z,7.30
2023-03-12T23:22:20.282Z,7.30
2023-03-12T23:24:47.141Z,7.30
2023-03-12T23:27:14.115Z,7.30
2023-03-12T23:29:40.912Z,7.40
2023-03-12T23:32:07.914Z,7.40
2023-03-12T23:34:35.095Z,7.40
2023-03-12T23:37:02.006Z,7.30
2023-03-12T23:39:30.731Z,7.40
2023-03-12T23:41:57.816Z,7.40
2023-03-12T23:44:24.837Z,7.50
2023-03-12T23:46:51.704Z,7.50
2023-03-12T23:49:18.546Z,7.50
2023-03-12T23:51:45.796Z,7.50
2023-03-12T23:54:12.566Z,7.50
2023-03-12T23:56:41.449Z,7.40
2023-03-12T23:59:09.880Z,7.50
